sensor_id;sensor_type;location;lat;lon;timestamp;P1;durP1;ratioP1;P2;durP2;ratioP2
25129;SDS011;13308;50.860;13.664;2023-06-10T05:05:31;8.77;;;7.97;;
25129;SDS011;13308;50.860;13.664;2023-06-10T05:07:56;9.80;;;8.80;;
25129;SDS011;13308;50.860;13.664;2023-06-10T05:10:22;9.77;;;8.23;;
25129;SDS011;13308;50.860;13.664;2023-06-10T05:12:47;8.65;;;7.85;;
25129;SDS011;13308;50.860;13.664;2023-06-10T05:15:12;8.85;;;8.05;;
25129;SDS011;13308;50.860;13.664;2023-06-10T05:17:38;8.43;;;7.68;;
25129;SDS011;13308;50.860;13.664;2023-06-10T05:20:03;8.90;;;8.07;;
25129;SDS011;13308;50.860;13.664;2023-06-10T05:22:29;8.02;;;7.32;;
25129;SDS011;13308;50.860;13.664;2023-06-10T05:24:54;8.80;;;8.00;;
25129;SDS011;13308;50.860;13.664;2023-06-10T05:27:20;8.77;;;7.88;;
25129;SDS011;13308;50.860;13.664;2023-06-10T05:29:46;8.77;;;7.88;;
25129;SDS011;13308;50.860;13.664;2023-06-10T05:32:11;8.48;;;7.60;;
25129;SDS011;13308;50.860;13.664;2023-06-10T05:34:36;8.60;;;7.80;;
25129;SDS011;13308;50.860;13.664;2023-06-10T05:37:02;9.30;;;7.60;;
25129;SDS011;13308;50.860;13.664;2023-06-10T05:39:28;8.95;;;7.80;;
25129;SDS011;13308;50.860;13.664;2023-06-10T05:41:53;9.48;;;8.38;;
25129;SDS011;13308;50.860;13.664;2023-06-10T05:44:18;8.23;;;7.45;;
25129;SDS011;13308;50.860;13.664;2023-06-10T05:46:44;8.68;;;7.80;;
25129;SDS011;13308;50.860;13.664;2023-06-10T05:49:09;8.15;;;7.45;;
25129;SDS011;13308;50.860;13.664;2023-06-10T05:51:34;8.00;;;7.30;;
25129;SDS011;13308;50.860;13.664;2023-06-10T05:54:00;7.90;;;7.13;;
25129;SDS011;13308;50.860;13.664;2023-06-10T05:56:26;7.90;;;7.13;;
25129;SDS011;13308;50.860;13.664;2023-06-10T05:58:51;8.00;;;7.20;;
25129;SDS011;13308;50.860;13.664;2023-06-10T06:01:16;7.63;;;6.93;;
25129;SDS011;13308;50.860;13.664;2023-06-10T06:03:42;8.52;;;7.32;;
25129;SDS011;13308;50.860;13.664;2023-06-10T06:06:07;7.25;;;6.65;;
25129;SDS011;13308;50.860;13.664;2023-06-10T06:08:33;8.82;;;6.20;;
25129;SDS011;13308;50.860;13.664;2023-06-10T06:10:58;6.95;;;5.88;;
25129;SDS011;13308;50.860;13.664;2023-06-10T06:13:23;8.88;;;6.28;;
25129;SDS011;13308;50.860;13.664;2023-06-10T06:15:49;7.97;;;6.15;;
25129;SDS011;13308;50.860;13.664;2023-06-10T06:18:15;7.40;;;6.50;;
25129;SDS011;13308;50.860;13.664;2023-06-10T06:20:40;6.95;;;6.07;;
25129;SDS011;13308;50.860;13.664;2023-06-10T06:23:05;7.47;;;6.57;;
25129;SDS011;13308;50.860;13.664;2023-06-10T06:25:31;9.50;;;6.57;;
25129;SDS011;13308;50.860;13.664;2023-06-10T06:27:56;7.78;;;7.07;;
25129;SDS011;13308;50.860;13.664;2023-06-10T06:30:21;7.15;;;6.55;;
25129;SDS011;13308;50.860;13.664;2023-06-10T06:32:47;6.85;;;6.25;;
25129;SDS011;13308;50.860;13.664;2023-06-10T06:35:12;7.72;;;7.07;;
25129;SDS011;13308;50.860;13.664;2023-06-10T06:37:37;10.07;;;7.90;;
25129;SDS011;13308;50.860;13.664;2023-06-10T06:40:14;9.27;;;6.78;;
25129;SDS011;13308;50.860;13.664;2023-06-10T06:42:39;7.28;;;6.68;;
25129;SDS011;13308;50.860;13.664;2023-06-10T06:45:16;7.75;;;7.15;;
25129;SDS011;13308;50.860;13.664;2023-06-10T06:47:41;7.45;;;6.88;;
25129;SDS011;13308;50.860;13.664;2023-06-10T06:50:08;8.85;;;7.30;;
25129;SDS011;13308;50.860;13.664;2023-06-10T06:52:34;8.90;;;8.10;;
25129;SDS011;13308;50.860;13.664;2023-06-10T06:55:00;8.93;;;7.80;;
25129;SDS011;13308;50.860;13.664;2023-06-10T06:57:25;7.80;;;7.13;;
25129;SDS011;13308;50.860;13.664;2023-06-10T06:59:50;7.90;;;7.20;;
25129;SDS011;13308;50.860;13.664;2023-06-10T07:02:16;7.80;;;6.95;;
25129;SDS011;13308;50.860;13.664;2023-06-10T07:04:41;7.63;;;6.88;;
25129;SDS011;13308;50.860;13.664;2023-06-10T07:07:07;7.43;;;6.82;;
25129;SDS011;13308;50.860;13.664;2023-06-10T07:09:36;8.20;;;7.20;;
25129;SDS011;13308;50.860;13.664;2023-06-10T07:12:02;8.48;;;7.75;;
25129;SDS011;13308;50.860;13.664;2023-06-10T07:14:28;7.93;;;7.22;;
25129;SDS011;13308;50.860;13.664;2023-06-10T07:16:53;8.82;;;6.97;;
25129;SDS011;13308;50.860;13.664;2023-06-10T07:19:18;7.60;;;6.95;;
25129;SDS011;13308;50.860;13.664;2023-06-10T07:21:44;7.95;;;7.15;;
25129;SDS011;13308;50.860;13.664;2023-06-10T07:24:09;9.90;;;7.38;;
25129;SDS011;13308;50.860;13.664;2023-06-10T07:26:34;7.90;;;7.22;;
25129;SDS011;13308;50.860;13.664;2023-06-10T07:29:00;9.48;;;7.10;;
25129;SDS011;13308;50.860;13.664;2023-06-10T07:31:25;11.10;;;8.32;;
25129;SDS011;13308;50.860;13.664;2023-06-10T07:33:50;8.75;;;7.60;;
25129;SDS011;13308;50.860;13.664;2023-06-10T07:36:16;8.23;;;7.53;;
25129;SDS011;13308;50.860;13.664;2023-06-10T07:38:41;7.95;;;7.25;;
25129;SDS011;13308;50.860;13.664;2023-06-10T07:41:07;8.38;;;7.53;;
25129;SDS011;13308;50.860;13.664;2023-06-10T07:43:33;10.45;;;7.53;;
25129;SDS011;13308;50.860;13.664;2023-06-10T07:45:58;10.45;;;7.57;;
25129;SDS011;13308;50.860;13.664;2023-06-10T07:48:24;7.93;;;7.15;;
25129;SDS011;13308;50.860;13.664;2023-06-10T07:50:49;8.45;;;7.65;;
25129;SDS011;13308;50.860;13.664;2023-06-10T07:53:15;9.07;;;8.18;;
25129;SDS011;13308;50.860;13.664;2023-06-10T07:55:40;9.80;;;7.65;;
25129;SDS011;13308;50.860;13.664;2023-06-10T07:58:05;12.68;;;7.55;;
25129;SDS011;13308;50.860;13.664;2023-06-10T08:00:31;8.82;;;8.02;;
25129;SDS011;13308;50.860;13.664;2023-06-10T08:02:56;10.27;;;7.13;;
25129;SDS011;13308;50.860;13.664;2023-06-10T08:05:21;8.27;;;7.55;;
25129;SDS011;13308;50.860;13.664;2023-06-10T08:07:46;7.60;;;7.00;;
25129;SDS011;13308;50.860;13.664;2023-06-10T08:10:12;8.50;;;7.75;;
25129;SDS011;13308;50.860;13.664;2023-06-10T08:12:37;9.32;;;8.43;;
25129;SDS011;13308;50.860;13.664;2023-06-10T08:15:03;9.00;;;8.20;;
25129;SDS011;13308;50.860;13.664;2023-06-10T08:17:29;9.73;;;8.82;;
25129;SDS011;13308;50.860;13.664;2023-06-10T08:19:55;9.73;;;8.85;;
25129;SDS011;13308;50.860;13.664;2023-06-10T08:22:20;9.55;;;8.60;;
25129;SDS011;13308;50.860;13.664;2023-06-10T08:24:46;10.73;;;9.63;;
25129;SDS011;13308;50.860;13.664;2023-06-10T08:27:11;10.57;;;8.90;;
25129;SDS011;13308;50.860;13.664;2023-06-10T08:29:37;10.35;;;9.45;;
25129;SDS011;13308;50.860;13.664;2023-06-10T08:32:02;9.93;;;8.93;;
25129;SDS011;13308;50.860;13.664;2023-06-10T08:34:28;10.48;;;9.35;;
25129;SDS011;13308;50.860;13.664;2023-06-10T08:36:53;20.98;;;14.93;;
25129;SDS011;13308;50.860;13.664;2023-06-10T08:39:20;14.55;;;13.05;;
25129;SDS011;13308;50.860;13.664;2023-06-10T08:44:53;9.63;;;8.70;;
25129;SDS011;13308;50.860;13.664;2023-06-10T08:47:22;11.50;;;9.38;;
25129;SDS011;13308;50.860;13.664;2023-06-10T08:49:49;9.98;;;8.98;;
25129;SDS011;13308;50.860;13.664;2023-06-10T08:52:16;12.30;;;11.00;;
25129;SDS011;13308;50.860;13.664;2023-06-10T08:54:43;20.00;;;12.93;;
25129;SDS011;13308;50.860;13.664;2023-06-10T08:57:14;17.70;;;12.20;;
25129;SDS011;13308;50.860;13.664;2023-06-10T08:59:40;15.65;;;10.75;;
25129;SDS011;13308;50.860;13.664;2023-06-10T09:02:06;11.50;;;10.43;;
25129;SDS011;13308;50.860;13.664;2023-06-10T09:04:33;11.68;;;10.50;;
25129;SDS011;13308;50.860;13.664;2023-06-10T09:07:01;12.13;;;10.70;;
25129;SDS011;13308;50.860;13.664;2023-06-10T09:09:27;12.75;;;11.52;;
25129;SDS011;13308;50.860;13.664;2023-06-10T09:11:53;11.98;;;10.77;;
25129;SDS011;13308;50.860;13.664;2023-06-10T09:14:18;11.80;;;10.65;;
25129;SDS011;13308;50.860;13.664;2023-06-10T09:16:43;11.55;;;10.32;;
25129;SDS011;13308;50.860;13.664;2023-06-10T09:19:11;10.93;;;9.93;;
25129;SDS011;13308;50.860;13.664;2023-06-10T09:21:39;11.95;;;10.35;;
25129;SDS011;13308;50.860;13.664;2023-06-10T09:24:05;13.75;;;10.52;;
25129;SDS011;13308;50.860;13.664;2023-06-10T09:26:30;11.52;;;10.30;;
25129;SDS011;13308;50.860;13.664;2023-06-10T09:29:04;11.52;;;10.32;;
25129;SDS011;13308;50.860;13.664;2023-06-10T09:31:30;13.15;;;11.45;;
25129;SDS011;13308;50.860;13.664;2023-06-10T09:34:04;12.00;;;10.73;;
25129;SDS011;13308;50.860;13.664;2023-06-10T09:36:40;13.32;;;12.00;;
25129;SDS011;13308;50.860;13.664;2023-06-10T09:39:16;11.85;;;10.75;;
25129;SDS011;13308;50.860;13.664;2023-06-10T09:41:44;13.30;;;11.63;;
25129;SDS011;13308;50.860;13.664;2023-06-10T09:44:16;13.38;;;12.00;;
25129;SDS011;13308;50.860;13.664;2023-06-10T09:46:49;11.88;;;10.77;;
25129;SDS011;13308;50.860;13.664;2023-06-10T09:49:19;10.15;;;9.25;;
25129;SDS011;13308;50.860;13.664;2023-06-10T09:51:54;10.27;;;9.43;;
25129;SDS011;13308;50.860;13.664;2023-06-10T09:54:20;9.38;;;8.48;;
25129;SDS011;13308;50.860;13.664;2023-06-10T09:56:50;9.68;;;8.77;;
25129;SDS011;13308;50.860;13.664;2023-06-10T09:59:29;10.80;;;9.70;;
25129;SDS011;13308;50.860;13.664;2023-06-10T10:01:56;9.57;;;8.68;;
25129;SDS011;13308;50.860;13.664;2023-06-10T10:04:25;8.82;;;8.05;;
25129;SDS011;13308;50.860;13.664;2023-06-10T10:06:50;8.68;;;7.88;;
25129;SDS011;13308;50.860;13.664;2023-06-10T10:09:16;8.35;;;7.68;;
25129;SDS011;13308;50.860;13.664;2023-06-10T10:11:41;8.93;;;8.13;;
25129;SDS011;13308;50.860;13.664;2023-06-10T10:14:09;9.60;;;8.70;;
25129;SDS011;13308;50.860;13.664;2023-06-10T10:16:39;9.55;;;8.85;;
25129;SDS011;13308;50.860;13.664;2023-06-10T10:19:13;8.38;;;7.68;;
25129;SDS011;13308;50.860;13.664;2023-06-10T10:21:44;8.55;;;7.88;;
25129;SDS011;13308;50.860;13.664;2023-06-10T10:24:25;8.82;;;7.80;;
25129;SDS011;13308;50.860;13.664;2023-06-10T10:26:58;9.20;;;8.43;;
25129;SDS011;13308;50.860;13.664;2023-06-10T10:29:30;8.77;;;7.97;;
25129;SDS011;13308;50.860;13.664;2023-06-10T10:31:58;8.48;;;7.78;;
25129;SDS011;13308;50.860;13.664;2023-06-10T10:37:50;8.60;;;7.22;;
25129;SDS011;13308;50.860;13.664;2023-06-10T10:40:17;8.52;;;7.38;;
25129;SDS011;13308;50.860;13.664;2023-06-10T10:42:45;8.55;;;7.85;;
25129;SDS011;13308;50.860;13.664;2023-06-10T10:45:13;8.55;;;7.85;;
25129;SDS011;13308;50.860;13.664;2023-06-10T10:47:38;8.93;;;7.78;;
25129;SDS011;13308;50.860;13.664;2023-06-10T10:50:23;8.27;;;7.47;;
25129;SDS011;13308;50.860;13.664;2023-06-10T10:52:55;9.32;;;8.10;;
25129;SDS011;13308;50.860;13.664;2023-06-10T10:55:24;8.57;;;7.85;;
25129;SDS011;13308;50.860;13.664;2023-06-10T10:57:58;8.25;;;7.00;;
25129;SDS011;13308;50.860;13.664;2023-06-10T11:05:46;7.93;;;7.23;;
25129;SDS011;13308;50.860;13.664;2023-06-10T11:08:14;7.93;;;7.32;;
25129;SDS011;13308;50.860;13.664;2023-06-10T11:10:57;8.32;;;7.63;;
25129;SDS011;13308;50.860;13.664;2023-06-10T11:13:23;7.43;;;6.85;;
25129;SDS011;13308;50.860;13.664;2023-06-10T11:15:50;8.30;;;7.60;;
25129;SDS011;13308;50.860;13.664;2023-06-10T11:31:29;6.88;;;6.38;;
25129;SDS011;13308;50.860;13.664;2023-06-10T11:33:59;11.43;;;6.53;;
25129;SDS011;13308;50.860;13.664;2023-06-10T11:36:30;7.88;;;7.18;;
25129;SDS011;13308;50.860;13.664;2023-06-10T11:38:59;6.90;;;6.38;;
25129;SDS011;13308;50.860;13.664;2023-06-10T11:41:26;7.68;;;6.97;;
25129;SDS011;13308;50.860;13.664;2023-06-10T11:43:54;7.45;;;6.82;;
25129;SDS011;13308;50.860;13.664;2023-06-10T11:46:21;7.43;;;6.72;;
25129;SDS011;13308;50.860;13.664;2023-06-10T11:51:15;7.13;;;6.38;;
25129;SDS011;13308;50.860;13.664;2023-06-10T11:53:43;6.90;;;6.40;;
25129;SDS011;13308;50.860;13.664;2023-06-10T11:56:09;9.05;;;6.97;;
25129;SDS011;13308;50.860;13.664;2023-06-10T11:58:34;7.10;;;6.50;;
25129;SDS011;13308;50.860;13.664;2023-06-10T12:00:59;6.82;;;6.32;;
25129;SDS011;13308;50.860;13.664;2023-06-10T12:03:26;7.25;;;6.65;;
25129;SDS011;13308;50.860;13.664;2023-06-10T12:06:01;7.68;;;7.05;;
25129;SDS011;13308;50.860;13.664;2023-06-10T12:08:27;7.57;;;6.90;;
25129;SDS011;13308;50.860;13.664;2023-06-10T12:10:53;7.70;;;7.10;;
25129;SDS011;13308;50.860;13.664;2023-06-10T12:13:20;7.10;;;6.50;;
25129;SDS011;13308;50.860;13.664;2023-06-10T12:15:46;8.23;;;6.68;;
25129;SDS011;13308;50.860;13.664;2023-06-10T12:18:18;6.85;;;6.35;;
25129;SDS011;13308;50.860;13.664;2023-06-10T12:20:44;6.72;;;6.18;;
25129;SDS011;13308;50.860;13.664;2023-06-10T12:23:10;7.45;;;6.75;;
25129;SDS011;13308;50.860;13.664;2023-06-10T12:25:36;7.50;;;6.85;;
25129;SDS011;13308;50.860;13.664;2023-06-10T12:28:04;7.35;;;6.75;;
25129;SDS011;13308;50.860;13.664;2023-06-10T12:30:31;8.40;;;6.88;;
25129;SDS011;13308;50.860;13.664;2023-06-10T12:32:57;7.93;;;7.32;;
25129;SDS011;13308;50.860;13.664;2023-06-10T12:35:24;11.45;;;10.35;;
25129;SDS011;13308;50.860;13.664;2023-06-10T12:38:06;7.55;;;6.85;;
25129;SDS011;13308;50.860;13.664;2023-06-10T12:40:36;8.32;;;7.55;;
25129;SDS011;13308;50.860;13.664;2023-06-10T12:43:05;6.75;;;6.28;;
25129;SDS011;13308;50.860;13.664;2023-06-10T12:45:35;6.65;;;6.07;;
25129;SDS011;13308;50.860;13.664;2023-06-10T12:48:25;6.05;;;5.45;;
25129;SDS011;13308;50.860;13.664;2023-06-10T12:50:53;5.90;;;5.40;;
25129;SDS011;13308;50.860;13.664;2023-06-10T12:53:22;6.20;;;5.70;;
25129;SDS011;13308;50.860;13.664;2023-06-10T12:55:49;6.88;;;6.28;;
25129;SDS011;13308;50.860;13.664;2023-06-10T12:58:15;7.07;;;6.47;;
25129;SDS011;13308;50.860;13.664;2023-06-10T13:00:40;6.38;;;5.88;;
25129;SDS011;13308;50.860;13.664;2023-06-10T13:03:07;6.68;;;6.18;;
25129;SDS011;13308;50.860;13.664;2023-06-10T13:05:34;7.22;;;6.72;;
25129;SDS011;13308;50.860;13.664;2023-06-10T13:08:02;6.57;;;6.00;;
25129;SDS011;13308;50.860;13.664;2023-06-10T13:10:28;6.93;;;6.32;;
25129;SDS011;13308;50.860;13.664;2023-06-10T13:12:53;6.43;;;5.93;;
25129;SDS011;13308;50.860;13.664;2023-06-10T13:15:21;6.80;;;6.22;;
25129;SDS011;13308;50.860;13.664;2023-06-10T13:17:47;6.80;;;6.30;;
25129;SDS011;13308;50.860;13.664;2023-06-10T13:20:14;6.82;;;6.20;;
25129;SDS011;13308;50.860;13.664;2023-06-10T13:22:40;6.72;;;6.22;;
25129;SDS011;13308;50.860;13.664;2023-06-10T13:25:05;6.55;;;5.70;;
25129;SDS011;13308;50.860;13.664;2023-06-10T13:27:34;5.85;;;5.40;;
25129;SDS011;13308;50.860;13.664;2023-06-10T13:30:03;6.50;;;5.90;;
25129;SDS011;13308;50.860;13.664;2023-06-10T13:32:30;6.82;;;6.32;;
25129;SDS011;13308;50.860;13.664;2023-06-10T13:34:56;8.13;;;5.20;;
25129;SDS011;13308;50.860;13.664;2023-06-10T13:37:22;7.32;;;6.72;;
25129;SDS011;13308;50.860;13.664;2023-06-10T13:39:47;7.07;;;6.57;;
25129;SDS011;13308;50.860;13.664;2023-06-10T13:42:15;6.25;;;5.80;;
25129;SDS011;13308;50.860;13.664;2023-06-10T13:44:43;6.57;;;6.00;;
25129;SDS011;13308;50.860;13.664;2023-06-10T13:47:10;6.53;;;6.03;;
25129;SDS011;13308;50.860;13.664;2023-06-10T13:49:35;5.97;;;5.57;;
25129;SDS011;13308;50.860;13.664;2023-06-10T13:52:01;8.30;;;6.30;;
25129;SDS011;13308;50.860;13.664;2023-06-10T13:54:26;6.40;;;5.80;;
25129;SDS011;13308;50.860;13.664;2023-06-10T13:56:52;6.22;;;5.68;;
25129;SDS011;13308;50.860;13.664;2023-06-10T13:59:18;6.32;;;5.93;;
25129;SDS011;13308;50.860;13.664;2023-06-10T14:01:44;6.10;;;5.70;;
25129;SDS011;13308;50.860;13.664;2023-06-10T14:04:09;5.60;;;5.20;;
25129;SDS011;13308;50.860;13.664;2023-06-10T14:06:35;5.60;;;5.20;;
25129;SDS011;13308;50.860;13.664;2023-06-10T14:09:00;5.68;;;5.18;;
25129;SDS011;13308;50.860;13.664;2023-06-10T14:11:26;6.20;;;5.63;;
25129;SDS011;13308;50.860;13.664;2023-06-10T14:13:51;5.63;;;5.22;;
25129;SDS011;13308;50.860;13.664;2023-06-10T14:16:17;5.70;;;5.30;;
25129;SDS011;13308;50.860;13.664;2023-06-10T14:18:42;6.03;;;5.50;;
25129;SDS011;13308;50.860;13.664;2023-06-10T14:21:07;6.00;;;5.60;;
25129;SDS011;13308;50.860;13.664;2023-06-10T14:23:33;5.75;;;5.35;;
25129;SDS011;13308;50.860;13.664;2023-06-10T14:25:58;6.05;;;5.65;;
25129;SDS011;13308;50.860;13.664;2023-06-10T14:28:24;6.38;;;5.88;;
25129;SDS011;13308;50.860;13.664;2023-06-10T14:30:51;6.00;;;5.50;;
25129;SDS011;13308;50.860;13.664;2023-06-10T14:33:16;5.72;;;5.32;;
25129;SDS011;13308;50.860;13.664;2023-06-10T14:35:42;5.25;;;4.75;;
25129;SDS011;13308;50.860;13.664;2023-06-10T14:38:08;4.85;;;4.50;;
25129;SDS011;13308;50.860;13.664;2023-06-10T14:40:33;5.78;;;5.38;;
25129;SDS011;13308;50.860;13.664;2023-06-10T14:42:58;5.38;;;4.93;;
25129;SDS011;13308;50.860;13.664;2023-06-10T14:45:26;5.75;;;5.07;;
25129;SDS011;13308;50.860;13.664;2023-06-10T14:47:51;5.40;;;5.00;;
25129;SDS011;13308;50.860;13.664;2023-06-10T14:50:17;5.93;;;5.43;;
25129;SDS011;13308;50.860;13.664;2023-06-10T14:52:42;6.05;;;5.55;;
25129;SDS011;13308;50.860;13.664;2023-06-10T14:55:07;5.75;;;5.35;;
25129;SDS011;13308;50.860;13.664;2023-06-10T14:57:33;5.80;;;5.30;;
25129;SDS011;13308;50.860;13.664;2023-06-10T14:59:58;5.82;;;5.43;;
25129;SDS011;13308;50.860;13.664;2023-06-10T15:02:23;6.13;;;5.63;;
25129;SDS011;13308;50.860;13.664;2023-06-10T15:04:49;6.18;;;5.78;;
25129;SDS011;13308;50.860;13.664;2023-06-10T15:07:14;6.03;;;5.63;;
25129;SDS011;13308;50.860;13.664;2023-06-10T15:09:42;6.15;;;5.75;;
25129;SDS011;13308;50.860;13.664;2023-06-10T15:12:08;6.47;;;6.00;;
25129;SDS011;13308;50.860;13.664;2023-06-10T15:14:34;6.32;;;5.93;;
25129;SDS011;13308;50.860;13.664;2023-06-10T15:16:59;6.45;;;5.95;;
25129;SDS011;13308;50.860;13.664;2023-06-10T15:19:25;7.07;;;6.50;;
25129;SDS011;13308;50.860;13.664;2023-06-10T15:21:51;6.65;;;6.18;;
25129;SDS011;13308;50.860;13.664;2023-06-10T15:24:17;7.97;;;7.30;;
25129;SDS011;13308;50.860;13.664;2023-06-10T15:26:42;6.95;;;6.30;;
25129;SDS011;13308;50.860;13.664;2023-06-10T15:29:08;7.32;;;6.82;;
25129;SDS011;13308;50.860;13.664;2023-06-10T15:31:34;7.38;;;6.78;;
25129;SDS011;13308;50.860;13.664;2023-06-10T15:33:59;6.90;;;6.40;;
25129;SDS011;13308;50.860;13.664;2023-06-10T15:36:25;7.50;;;6.80;;
25129;SDS011;13308;50.860;13.664;2023-06-10T15:38:51;7.50;;;6.90;;
25129;SDS011;13308;50.860;13.664;2023-06-10T15:41:18;7.30;;;6.80;;
25129;SDS011;13308;50.860;13.664;2023-06-10T15:43:43;7.07;;;6.57;;
25129;SDS011;13308;50.860;13.664;2023-06-10T15:46:08;7.38;;;6.78;;
25129;SDS011;13308;50.860;13.664;2023-06-10T15:48:34;8.20;;;7.45;;
25129;SDS011;13308;50.860;13.664;2023-06-10T15:50:59;7.75;;;7.15;;
25129;SDS011;13308;50.860;13.664;2023-06-10T15:53:24;7.50;;;6.85;;
25129;SDS011;13308;50.860;13.664;2023-06-10T15:55:50;8.18;;;7.57;;
25129;SDS011;13308;50.860;13.664;2023-06-10T15:58:15;7.80;;;7.20;;
25129;SDS011;13308;50.860;13.664;2023-06-10T16:00:40;7.65;;;7.05;;
25129;SDS011;13308;50.860;13.664;2023-06-10T16:03:06;9.57;;;7.15;;
25129;SDS011;13308;50.860;13.664;2023-06-10T16:05:31;8.18;;;7.57;;
25129;SDS011;13308;50.860;13.664;2023-06-10T16:07:56;8.43;;;7.68;;
25129;SDS011;13308;50.860;13.664;2023-06-10T16:10:22;8.40;;;7.78;;
25129;SDS011;13308;50.860;13.664;2023-06-10T16:12:49;8.07;;;7.38;;
25129;SDS011;13308;50.860;13.664;2023-06-10T16:15:15;8.88;;;8.07;;
25129;SDS011;13308;50.860;13.664;2023-06-10T16:17:40;8.63;;;7.82;;
25129;SDS011;13308;50.860;13.664;2023-06-10T16:20:06;8.75;;;8.05;;
25129;SDS011;13308;50.860;13.664;2023-06-10T16:22:32;8.95;;;8.25;;
25129;SDS011;13308;50.860;13.664;2023-06-10T16:24:57;8.77;;;7.97;;
25129;SDS011;13308;50.860;13.664;2023-06-10T16:27:22;9.52;;;8.73;;
25129;SDS011;13308;50.860;13.664;2023-06-10T16:29:50;9.88;;;8.73;;
25129;SDS011;13308;50.860;13.664;2023-06-10T16:32:16;9.85;;;7.95;;
25129;SDS011;13308;50.860;13.664;2023-06-10T16:34:41;8.55;;;7.75;;
25129;SDS011;13308;50.860;13.664;2023-06-10T16:37:06;9.77;;;8.95;;
25129;SDS011;13308;50.860;13.664;2023-06-10T16:39:32;10.07;;;8.68;;
25129;SDS011;13308;50.860;13.664;2023-06-10T16:41:57;9.82;;;8.93;;
25129;SDS011;13308;50.860;13.664;2023-06-10T16:44:23;9.80;;;8.88;;
25129;SDS011;13308;50.860;13.664;2023-06-10T16:46:48;9.98;;;8.95;;
25129;SDS011;13308;50.860;13.664;2023-06-10T16:49:13;10.60;;;9.63;;
25129;SDS011;13308;50.860;13.664;2023-06-10T16:51:39;9.95;;;9.13;;
25129;SDS011;13308;50.860;13.664;2023-06-10T16:54:04;11.10;;;9.90;;
25129;SDS011;13308;50.860;13.664;2023-06-10T16:56:29;13.85;;;9.95;;
25129;SDS011;13308;50.860;13.664;2023-06-10T16:58:55;11.52;;;8.73;;
25129;SDS011;13308;50.860;13.664;2023-06-10T17:01:20;10.07;;;9.18;;
25129;SDS011;13308;50.860;13.664;2023-06-10T17:03:46;8.90;;;8.07;;
25129;SDS011;13308;50.860;13.664;2023-06-10T17:06:11;8.85;;;8.15;;
25129;SDS011;13308;50.860;13.664;2023-06-10T17:08:36;9.52;;;8.63;;
25129;SDS011;13308;50.860;13.664;2023-06-10T17:11:02;9.65;;;8.65;;
25129;SDS011;13308;50.860;13.664;2023-06-10T17:13:27;8.30;;;7.60;;
25129;SDS011;13308;50.860;13.664;2023-06-10T17:15:52;9.65;;;8.77;;
25129;SDS011;13308;50.860;13.664;2023-06-10T17:18:17;8.48;;;7.78;;
25129;SDS011;13308;50.860;13.664;2023-06-10T17:20:43;8.45;;;7.72;;
25129;SDS011;13308;50.860;13.664;2023-06-10T17:23:08;9.52;;;8.73;;
25129;SDS011;13308;50.860;13.664;2023-06-10T17:25:35;8.07;;;7.38;;
25129;SDS011;13308;50.860;13.664;2023-06-10T17:28:01;8.48;;;7.75;;
25129;SDS011;13308;50.860;13.664;2023-06-10T17:30:27;7.85;;;7.15;;
25129;SDS011;13308;50.860;13.664;2023-06-10T17:32:52;7.93;;;7.30;;
25129;SDS011;13308;50.860;13.664;2023-06-10T17:35:17;8.85;;;8.07;;
25129;SDS011;13308;50.860;13.664;2023-06-10T17:37:43;8.32;;;7.53;;
25129;SDS011;13308;50.860;13.664;2023-06-10T17:40:09;7.70;;;7.10;;
25129;SDS011;13308;50.860;13.664;2023-06-10T17:42:34;7.28;;;6.63;;
25129;SDS011;13308;50.860;13.664;2023-06-10T17:45:00;9.32;;;7.78;;
25129;SDS011;13308;50.860;13.664;2023-06-10T17:47:25;8.30;;;7.60;;
25129;SDS011;13308;50.860;13.664;2023-06-10T17:49:50;8.35;;;7.65;;
25129;SDS011;13308;50.860;13.664;2023-06-10T17:52:16;8.02;;;7.28;;
25129;SDS011;13308;50.860;13.664;2023-06-10T17:54:41;7.78;;;7.13;;
25129;SDS011;13308;50.860;13.664;2023-06-10T17:57:07;7.80;;;6.72;;
